createdAt,value
2023-12-24T00:01:35.456Z,0.20
2023-12-24T00:04:01.985Z,0.30
2023-12-24T00:06:28.595Z,0.30
2023-12-24T00:08:55.224Z,0.20
2023-12-24T00:11:21.883Z,0.50
2023-12-24T00:13:48.475Z,0.43
2023-12-24T00:16:15.046Z,0.40
2023-12-24T00:18:41.657Z,0.50
2023-12-24T00:21:08.276Z,0.20
2023-12-24T00:23:34.940Z,0.20
2023-12-24T00:26:01.588Z,0.40
2023-12-24T00:28:28.156Z,0.10
2023-12-24T00:30:54.814Z,0.30
2023-12-24T00:33:22.168Z,0.20
2023-12-24T00:35:49.584Z,0.30
2023-12-24T00:38:17.812Z,0.30
2023-12-24T00:40:44.460Z,0.20
2023-12-24T00:43:11.081Z,0.27
2023-12-24T00:45:37.603Z,0.20
2023-12-24T00:48:04.776Z,0.20
2023-12-24T00:50:31.489Z,0.30
2023-12-24T00:52:58.202Z,0.30
2023-12-24T00:55:24.759Z,0.87
2023-12-24T00:57:51.308Z,0.60
2023-12-24T01:00:20.194Z,0.80
2023-12-24T01:02:47.905Z,0.93
2023-12-24T01:05:14.577Z,0.47
2023-12-24T01:07:41.226Z,0.47
2023-12-24T01:10:08.233Z,0.30
2023-12-24T01:12:37.547Z,0.30
2023-12-24T01:15:05.337Z,0.13
2023-12-24T01:17:32.004Z,0.20
2023-12-24T01:19:58.639Z,0.30
2023-12-24T01:22:25.482Z,0.10
2023-12-24T01:24:52.092Z,0.20
2023-12-24T01:27:18.624Z,0.20
2023-12-24T01:29:45.167Z,0.17
2023-12-24T01:32:11.722Z,0.20
2023-12-24T01:34:38.321Z,0.30
2023-12-24T01:37:04.903Z,0.30
2023-12-24T01:39:33.103Z,0.20
2023-12-24T01:41:59.636Z,0.33
2023-12-24T01:44:26.250Z,0.30
2023-12-24T01:46:53.104Z,0.30
2023-12-24T01:49:19.756Z,0.27
2023-12-24T01:51:47.600Z,0.40
2023-12-24T01:54:19.466Z,0.20
2023-12-24T01:56:48.723Z,0.23
2023-12-24T01:59:17.741Z,0.23
2023-12-24T02:01:46.846Z,0.20
2023-12-24T02:04:16.513Z,0.30
2023-12-24T02:06:43.438Z,0.40
2023-12-24T02:09:10.200Z,0.17
2023-12-24T02:11:36.838Z,0.20
2023-12-24T02:14:04.084Z,0.00
2023-12-24T02:16:38.908Z,0.10
2023-12-24T02:19:12.001Z,0.20
2023-12-24T02:21:38.586Z,0.20
2023-12-24T02:24:05.886Z,0.20
2023-12-24T02:26:42.876Z,0.40
2023-12-24T02:29:28.169Z,0.10
2023-12-24T02:32:07.560Z,0.40
2023-12-24T02:34:36.329Z,0.30
2023-12-24T02:37:05.279Z,0.37
2023-12-24T02:39:31.866Z,0.20
2023-12-24T02:41:58.436Z,0.20
2023-12-24T02:44:25.001Z,0.20
2023-12-24T02:46:51.659Z,0.20
2023-12-24T02:49:19.232Z,0.20
2023-12-24T02:51:45.905Z,0.20
2023-12-24T02:54:12.614Z,0.20
2023-12-24T02:56:39.231Z,0.20
2023-12-24T02:59:06.220Z,0.30
2023-12-24T03:01:32.820Z,0.20
2023-12-24T03:04:00.394Z,0.20
2023-12-24T03:06:26.964Z,0.10
2023-12-24T03:08:53.531Z,0.10
2023-12-24T03:11:20.215Z,0.30
2023-12-24T03:13:46.852Z,0.40
2023-12-24T03:16:13.439Z,0.20
2023-12-24T03:18:40.087Z,0.20
2023-12-24T03:21:07.582Z,0.20
2023-12-24T03:23:34.252Z,0.20
2023-12-24T03:26:00.920Z,0.40
2023-12-24T03:28:27.506Z,0.10
2023-12-24T03:30:54.422Z,0.13
2023-12-24T03:33:21.019Z,0.10
2023-12-24T03:35:47.611Z,0.20
2023-12-24T03:38:14.282Z,0.10
2023-12-24T03:40:40.897Z,0.13
2023-12-24T03:43:07.687Z,0.20
2023-12-24T03:45:34.245Z,0.20
2023-12-24T03:48:04.932Z,0.20
2023-12-24T03:50:31.813Z,0.10
2023-12-24T03:53:00.864Z,0.10
2023-12-24T03:55:28.024Z,0.20
2023-12-24T03:57:55.463Z,0.10
2023-12-24T04:00:22.191Z,0.27
2023-12-24T04:02:49.491Z,0.20
2023-12-24T04:05:16.346Z,0.30
2023-12-24T04:07:42.921Z,0.20
2023-12-24T04:10:09.919Z,0.30
2023-12-24T04:12:36.729Z,0.23
2023-12-24T04:15:05.512Z,0.10
2023-12-24T04:17:34.528Z,0.20
2023-12-24T04:20:06.313Z,0.27
2023-12-24T04:22:33.712Z,0.40
2023-12-24T04:25:00.757Z,0.50
2023-12-24T04:27:27.349Z,0.10
2023-12-24T04:29:53.981Z,0.40
2023-12-24T04:32:20.823Z,1.17
2023-12-24T04:34:47.521Z,0.30
2023-12-24T04:37:14.085Z,0.30
2023-12-24T04:39:40.633Z,0.43
2023-12-24T04:42:07.228Z,0.20
2023-12-24T04:44:37.772Z,0.30
2023-12-24T04:47:04.950Z,0.30
2023-12-24T04:49:31.557Z,0.30
2023-12-24T04:52:00.181Z,0.43
2023-12-24T04:54:28.113Z,0.30
2023-12-24T04:56:54.858Z,0.40
2023-12-24T04:59:21.933Z,0.20
2023-12-24T05:01:51.329Z,0.30
2023-12-24T05:04:18.043Z,0.50
2023-12-24T05:06:45.405Z,0.37
2023-12-24T05:09:11.991Z,0.10
2023-12-24T05:11:41.727Z,0.27
2023-12-24T05:14:08.567Z,0.50
2023-12-24T05:16:35.130Z,0.30
2023-12-24T05:19:01.825Z,0.30
2023-12-24T05:21:29.730Z,0.10
2023-12-24T05:23:59.445Z,0.10
2023-12-24T05:26:26.390Z,0.20
2023-12-24T05:28:55.776Z,0.30
2023-12-24T05:31:22.333Z,0.40
2023-12-24T05:33:48.972Z,0.43
2023-12-24T05:36:15.910Z,0.70
2023-12-24T05:38:43.006Z,0.70
2023-12-24T05:41:11.272Z,0.40
2023-12-24T05:43:38.193Z,0.60
2023-12-24T05:46:11.116Z,0.50
2023-12-24T05:48:37.876Z,0.30
2023-12-24T05:51:04.734Z,0.40
2023-12-24T05:53:31.331Z,0.50
2023-12-24T05:55:57.977Z,0.30
2023-12-24T05:58:24.616Z,0.40
2023-12-24T06:00:51.745Z,0.30
2023-12-24T06:03:18.480Z,0.70
2023-12-24T06:05:45.173Z,0.50
2023-12-24T06:08:16.727Z,0.57
2023-12-24T06:10:44.113Z,0.30
2023-12-24T06:13:11.825Z,0.40
2023-12-24T06:15:38.461Z,0.77
2023-12-24T06:18:06.501Z,0.80
2023-12-24T06:20:33.686Z,0.50
2023-12-24T06:23:00.597Z,0.60
2023-12-24T06:25:27.592Z,0.67
2023-12-24T06:27:54.170Z,0.70
2023-12-24T06:30:22.322Z,0.60
2023-12-24T06:32:49.398Z,0.83
2023-12-24T06:35:16.187Z,1.20
2023-12-24T06:37:42.792Z,1.40
2023-12-24T06:40:10.517Z,1.10
2023-12-24T06:42:37.065Z,1.10
2023-12-24T06:45:04.220Z,1.80
2023-12-24T06:47:31.015Z,1.60
2023-12-24T06:49:57.620Z,1.10
2023-12-24T06:52:24.185Z,0.80
2023-12-24T06:54:50.854Z,1.17
2023-12-24T06:57:17.429Z,0.73
2023-12-24T06:59:44.093Z,0.93
2023-12-24T07:02:10.722Z,1.47
2023-12-24T07:04:37.707Z,1.13
2023-12-24T07:07:04.515Z,1.33
2023-12-24T07:09:31.062Z,1.30
2023-12-24T07:11:57.656Z,1.43
2023-12-24T07:14:24.243Z,1.50
2023-12-24T07:16:50.868Z,1.33
2023-12-24T07:19:17.436Z,1.20
2023-12-24T07:21:44.042Z,0.73
2023-12-24T07:24:12.643Z,1.30
2023-12-24T07:26:39.264Z,1.10
2023-12-24T07:29:05.875Z,1.70
2023-12-24T07:31:32.449Z,1.20
2023-12-24T07:33:59.039Z,1.10
2023-12-24T07:36:25.623Z,1.30
2023-12-24T07:38:52.210Z,1.83
2023-12-24T07:41:19.133Z,1.97
2023-12-24T07:43:45.704Z,1.60
2023-12-24T07:46:12.240Z,1.30
2023-12-24T07:48:38.888Z,1.93
2023-12-24T07:51:05.519Z,1.37
2023-12-24T07:53:34.649Z,0.97
2023-12-24T07:56:01.507Z,0.90
2023-12-24T07:58:28.123Z,1.13
2023-12-24T08:00:54.712Z,1.20
2023-12-24T08:03:21.374Z,1.13
2023-12-24T08:05:48.139Z,1.17
2023-12-24T08:08:14.922Z,1.50
2023-12-24T08:10:41.619Z,1.63
2023-12-24T08:13:12.196Z,1.20
2023-12-24T08:15:41.169Z,1.20
2023-12-24T08:18:08.253Z,1.10
2023-12-24T08:20:35.070Z,1.07
2023-12-24T08:23:01.771Z,0.90
2023-12-24T08:25:28.381Z,1.10
2023-12-24T08:27:54.954Z,1.00
2023-12-24T08:30:21.531Z,1.40
2023-12-24T08:32:48.228Z,1.20
2023-12-24T08:35:14.875Z,1.40
2023-12-24T08:37:41.463Z,1.27
2023-12-24T08:40:09.069Z,1.23
2023-12-24T08:42:35.628Z,1.23
2023-12-24T08:45:02.324Z,1.20
2023-12-24T08:47:28.982Z,1.30
2023-12-24T08:49:57.509Z,1.33
2023-12-24T08:52:25.466Z,2.10
2023-12-24T08:54:52.059Z,2.10
2023-12-24T08:57:18.590Z,2.23
2023-12-24T08:59:45.175Z,2.30
2023-12-24T09:02:11.769Z,1.97
2023-12-24T09:04:38.336Z,2.03
2023-12-24T09:07:04.921Z,1.83
2023-12-24T09:09:31.471Z,2.13
2023-12-24T09:11:58.044Z,2.00
2023-12-24T09:14:24.614Z,2.03
2023-12-24T09:16:51.212Z,2.30
2023-12-24T09:19:17.793Z,2.47
2023-12-24T09:21:44.378Z,3.07
2023-12-24T09:24:10.927Z,2.60
2023-12-24T09:26:37.564Z,2.43
2023-12-24T09:29:04.232Z,3.40
2023-12-24T09:31:30.844Z,3.53
2023-12-24T09:33:57.469Z,3.57
2023-12-24T09:36:24.138Z,3.40
2023-12-24T09:38:50.915Z,4.17
2023-12-24T09:41:19.855Z,3.47
2023-12-24T09:43:46.487Z,3.10
2023-12-24T09:46:13.051Z,3.43
2023-12-24T09:48:39.629Z,3.03
2023-12-24T09:51:08.799Z,3.03
2023-12-24T09:53:35.424Z,3.27
2023-12-24T09:56:02.295Z,2.33
2023-12-24T09:58:28.942Z,3.00
2023-12-24T10:00:55.526Z,2.53
2023-12-24T10:03:22.080Z,2.70
2023-12-24T10:06:04.946Z,2.70
2023-12-24T10:08:32.209Z,2.53
2023-12-24T10:11:24.434Z,2.50
2023-12-24T10:14:01.648Z,2.10
2023-12-24T10:16:28.761Z,2.73
2023-12-24T10:18:55.854Z,2.30
2023-12-24T10:21:22.811Z,2.07
2023-12-24T10:23:49.461Z,2.93
2023-12-24T10:26:16.106Z,2.40
2023-12-24T10:28:58.138Z,3.17
2023-12-24T10:31:28.281Z,3.33
2023-12-24T10:34:00.975Z,2.90
2023-12-24T10:36:27.717Z,3.00
2023-12-24T10:38:54.312Z,4.23
2023-12-24T10:41:20.939Z,4.23
2023-12-24T10:43:47.523Z,4.77
2023-12-24T10:46:14.056Z,4.83
2023-12-24T10:48:40.704Z,3.60
2023-12-24T10:51:07.285Z,4.53
2023-12-24T10:53:44.148Z,3.87
2023-12-24T10:56:23.597Z,2.90
2023-12-24T10:59:26.726Z,3.10
2023-12-24T11:01:54.889Z,3.00
2023-12-24T11:04:45.122Z,2.33
2023-12-24T11:07:47.684Z,2.20
2023-12-24T11:10:43.453Z,2.30
2023-12-24T11:13:13.221Z,1.93
2023-12-24T11:15:45.415Z,2.63
2023-12-24T11:18:12.306Z,2.83
2023-12-24T11:20:41.979Z,2.80
2023-12-24T11:23:13.379Z,2.90
2023-12-24T11:25:51.422Z,2.97
2023-12-24T11:28:39.090Z,2.90
2023-12-24T11:31:07.508Z,3.07
2023-12-24T11:33:47.567Z,3.03
2023-12-24T11:36:18.987Z,3.10
2023-12-24T11:38:48.431Z,3.07
2023-12-24T11:41:20.294Z,3.47
2023-12-24T11:44:01.699Z,3.63
2023-12-24T11:46:34.744Z,3.00
2023-12-24T11:49:07.060Z,3.73
2023-12-24T11:51:34.313Z,3.67
2023-12-24T11:54:05.991Z,3.97
2023-12-24T11:56:33.597Z,3.73
2023-12-24T11:59:03.048Z,3.70
2023-12-24T12:01:36.716Z,3.43
2023-12-24T12:04:05.382Z,3.10
2023-12-24T12:06:37.637Z,3.03
2023-12-24T12:09:07.077Z,3.57
2023-12-24T12:11:35.955Z,3.37
2023-12-24T12:14:03.410Z,4.20
2023-12-24T12:16:30.508Z,4.00
2023-12-24T12:18:59.318Z,4.20
2023-12-24T12:21:26.297Z,4.50
2023-12-24T12:23:53.227Z,4.60
2023-12-24T12:26:21.596Z,4.10
2023-12-24T12:28:49.098Z,4.40
2023-12-24T12:31:16.269Z,4.13
2023-12-24T12:33:44.727Z,4.17
2023-12-24T12:36:14.850Z,3.33
2023-12-24T12:38:41.491Z,3.93
2023-12-24T12:41:08.177Z,3.97
2023-12-24T12:43:35.432Z,4.80
2023-12-24T12:46:01.987Z,4.00
2023-12-24T12:48:28.664Z,4.50
2023-12-24T12:50:56.565Z,3.90
2023-12-24T12:53:26.869Z,3.90
2023-12-24T12:56:03.986Z,4.47
2023-12-24T12:58:31.055Z,4.67
2023-12-24T13:00:58.928Z,4.47
2023-12-24T13:03:25.772Z,4.27
2023-12-24T13:05:52.654Z,4.20
2023-12-24T13:08:19.778Z,3.77
2023-12-24T13:10:46.594Z,3.93
2023-12-24T13:13:24.594Z,3.80
2023-12-24T13:16:10.436Z,4.47
2023-12-24T13:18:37.919Z,4.67
2023-12-24T13:21:09.810Z,4.37
2023-12-24T13:23:36.470Z,3.93
2023-12-24T13:26:05.578Z,4.17
2023-12-24T13:28:34.075Z,2.90
2023-12-24T13:31:02.158Z,3.70
2023-12-24T13:33:28.889Z,3.70
2023-12-24T13:35:55.791Z,3.63
2023-12-24T13:38:22.705Z,3.40
2023-12-24T13:40:50.617Z,3.43
2023-12-24T13:43:17.219Z,2.73
2023-12-24T13:45:44.195Z,2.70
2023-12-24T13:48:12.329Z,2.93
2023-12-24T13:50:39.749Z,3.00
2023-12-24T13:53:18.373Z,3.23
2023-12-24T13:55:51.624Z,4.37
2023-12-24T13:58:18.424Z,4.60
2023-12-24T14:00:45.388Z,4.33
2023-12-24T14:03:12.121Z,4.60
2023-12-24T14:05:40.699Z,3.40
2023-12-24T14:08:07.592Z,4.83
2023-12-24T14:10:34.160Z,4.83
2023-12-24T14:13:00.749Z,5.23
2023-12-24T14:15:27.879Z,5.00
2023-12-24T14:17:54.582Z,4.33
2023-12-24T14:20:21.294Z,5.70
2023-12-24T14:22:47.870Z,4.47
2023-12-24T14:25:14.453Z,4.57
2023-12-24T14:27:41.047Z,4.63
2023-12-24T14:30:08.654Z,4.17
2023-12-24T14:32:35.479Z,4.63
2023-12-24T14:35:02.860Z,4.57
2023-12-24T14:37:29.414Z,5.30
2023-12-24T14:39:55.941Z,4.27
2023-12-24T14:42:22.547Z,3.77
2023-12-24T14:44:49.765Z,3.17
2023-12-24T14:47:19.043Z,3.60
2023-12-24T14:49:46.156Z,3.93
2023-12-24T14:52:13.436Z,5.60
2023-12-24T14:54:40.182Z,4.10
2023-12-24T14:57:06.821Z,3.53
2023-12-24T14:59:33.399Z,5.60
2023-12-24T15:02:01.441Z,5.50
2023-12-24T15:04:28.190Z,5.47
2023-12-24T15:06:56.112Z,3.87
2023-12-24T15:09:22.715Z,4.57
2023-12-24T15:11:49.241Z,3.57
2023-12-24T15:14:15.987Z,3.53
2023-12-24T15:16:42.906Z,3.53
2023-12-24T15:19:09.536Z,3.73
2023-12-24T15:21:36.104Z,3.53
2023-12-24T15:24:03.696Z,3.40
2023-12-24T15:26:33.127Z,3.77
2023-12-24T15:29:00.676Z,4.27
2023-12-24T15:31:28.479Z,4.23
2023-12-24T15:33:55.148Z,3.80
2023-12-24T15:36:21.712Z,3.70
2023-12-24T15:38:48.332Z,3.70
2023-12-24T15:41:17.068Z,3.67
2023-12-24T15:43:45.529Z,3.87
2023-12-24T15:46:12.092Z,3.30
2023-12-24T15:48:38.688Z,3.17
2023-12-24T15:51:05.421Z,3.60
2023-12-24T15:53:31.979Z,3.50
2023-12-24T15:55:58.546Z,3.43
2023-12-24T15:58:25.632Z,3.80
2023-12-24T16:00:52.216Z,3.10
2023-12-24T16:03:18.786Z,2.53
2023-12-24T16:05:46.266Z,3.10
2023-12-24T16:08:12.858Z,3.00
2023-12-24T16:10:39.509Z,2.33
2023-12-24T16:13:06.098Z,1.73
2023-12-24T16:15:35.796Z,2.37
2023-12-24T16:18:04.266Z,2.70
2023-12-24T16:20:31.012Z,2.60
2023-12-24T16:22:57.538Z,2.10
2023-12-24T16:25:26.868Z,2.37
2023-12-24T16:27:53.652Z,2.70
2023-12-24T16:30:20.234Z,2.53
2023-12-24T16:32:46.797Z,2.63
2023-12-24T16:35:13.550Z,2.80
2023-12-24T16:37:40.141Z,2.77
2023-12-24T16:40:08.261Z,2.93
2023-12-24T16:42:36.086Z,3.13
2023-12-24T16:45:03.764Z,2.57
2023-12-24T16:47:30.542Z,2.23
2023-12-24T16:49:57.324Z,2.07
2023-12-24T16:52:23.933Z,3.13
2023-12-24T16:54:50.498Z,4.53
2023-12-24T16:57:17.038Z,3.13
2023-12-24T16:59:43.628Z,2.57
2023-12-24T17:02:10.324Z,2.73
2023-12-24T17:04:37.193Z,2.70
2023-12-24T17:07:03.937Z,2.63
2023-12-24T17:09:38.914Z,3.50
2023-12-24T17:12:06.320Z,2.80
2023-12-24T17:14:32.903Z,2.80
2023-12-24T17:16:59.565Z,2.23
2023-12-24T17:19:26.302Z,2.47
2023-12-24T17:21:52.989Z,2.60
2023-12-24T17:24:19.546Z,2.23
2023-12-24T17:26:46.252Z,2.00
2023-12-24T17:29:13.016Z,2.70
2023-12-24T17:31:39.613Z,2.23
2023-12-24T17:34:06.732Z,2.27
2023-12-24T17:36:33.462Z,2.20
2023-12-24T17:38:59.984Z,2.53
2023-12-24T17:41:26.804Z,2.37
2023-12-24T17:43:53.350Z,2.30
2023-12-24T17:46:19.933Z,2.23
2023-12-24T17:48:48.451Z,2.57
2023-12-24T17:51:15.389Z,2.27
2023-12-24T17:53:42.257Z,2.30
2023-12-24T17:56:08.947Z,2.03
2023-12-24T17:58:35.748Z,1.87
2023-12-24T18:01:02.410Z,1.97
2023-12-24T18:03:29.005Z,2.20
2023-12-24T18:05:55.755Z,1.80
2023-12-24T18:08:22.578Z,1.93
2023-12-24T18:10:49.565Z,2.20
2023-12-24T18:13:16.110Z,2.03
2023-12-24T18:15:42.826Z,2.33
2023-12-24T18:18:09.729Z,2.30
2023-12-24T18:20:36.551Z,2.10
2023-12-24T18:23:03.626Z,1.87
2023-12-24T18:25:30.208Z,2.93
2023-12-24T18:27:58.219Z,3.13
2023-12-24T18:30:25.292Z,2.90
2023-12-24T18:32:52.168Z,3.90
2023-12-24T18:35:19.043Z,5.33
2023-12-24T18:37:45.623Z,2.87
2023-12-24T18:40:13.056Z,1.77
2023-12-24T18:42:39.609Z,2.60
2023-12-24T18:45:06.950Z,1.93
2023-12-24T18:47:33.599Z,1.80
2023-12-24T18:50:00.227Z,1.63
2023-12-24T18:52:28.901Z,1.80
2023-12-24T18:54:56.148Z,2.30
2023-12-24T18:57:22.696Z,1.40
2023-12-24T18:59:50.479Z,1.67
2023-12-24T19:02:17.206Z,1.60
2023-12-24T19:04:44.359Z,1.60
2023-12-24T19:07:10.924Z,2.23
2023-12-24T19:09:37.805Z,1.47
2023-12-24T19:12:04.888Z,1.60
2023-12-24T19:14:31.654Z,1.70
2023-12-24T19:16:58.225Z,1.77
2023-12-24T19:19:25.009Z,1.90
2023-12-24T19:21:51.679Z,1.63
2023-12-24T19:24:25.032Z,1.17
2023-12-24T19:26:51.630Z,2.20
2023-12-24T19:29:18.215Z,1.50
2023-12-24T19:31:44.825Z,1.53
2023-12-24T19:34:11.398Z,1.67
2023-12-24T19:36:38.039Z,1.67
2023-12-24T19:39:04.573Z,1.27
2023-12-24T19:41:31.158Z,1.10
2023-12-24T19:43:57.726Z,1.47
2023-12-24T19:46:25.393Z,1.50
2023-12-24T19:48:53.879Z,3.87
2023-12-24T19:51:22.428Z,2.20
2023-12-24T19:53:51.620Z,1.53
2023-12-24T19:56:18.496Z,1.40
2023-12-24T19:58:46.656Z,1.27
2023-12-24T20:01:13.399Z,1.47
2023-12-24T20:03:40.288Z,1.03
2023-12-24T20:06:06.988Z,2.00
2023-12-24T20:08:33.792Z,1.90
2023-12-24T20:11:00.365Z,1.87
2023-12-24T20:13:26.915Z,1.50
2023-12-24T20:15:53.490Z,1.50
2023-12-24T20:18:20.247Z,1.97
2023-12-24T20:20:47.164Z,2.17
2023-12-24T20:23:15.167Z,2.03
2023-12-24T20:25:41.857Z,1.43
2023-12-24T20:28:08.401Z,1.90
2023-12-24T20:30:34.997Z,2.07
2023-12-24T20:33:01.888Z,2.10
2023-12-24T20:35:28.711Z,1.77
2023-12-24T20:37:55.285Z,1.83
2023-12-24T20:40:21.867Z,1.50
2023-12-24T20:42:48.407Z,2.07
2023-12-24T20:45:15.402Z,1.77
2023-12-24T20:47:42.069Z,2.13
2023-12-24T20:50:09.225Z,1.70
2023-12-24T20:52:35.811Z,1.90
2023-12-24T20:55:02.578Z,1.90
2023-12-24T20:57:29.147Z,1.37
2023-12-24T20:59:55.765Z,1.67
2023-12-24T21:02:22.678Z,1.80
2023-12-24T21:04:50.521Z,1.63
2023-12-24T21:07:18.382Z,1.60
2023-12-24T21:09:44.929Z,1.83
2023-12-24T21:12:11.503Z,1.80
2023-12-24T21:14:38.064Z,1.70
2023-12-24T21:17:04.705Z,2.10
2023-12-24T21:19:31.331Z,2.20
2023-12-24T21:21:57.955Z,2.50
2023-12-24T21:24:24.519Z,2.80
2023-12-24T21:26:51.051Z,2.23
2023-12-24T21:29:17.732Z,2.00
2023-12-24T21:31:44.309Z,2.10
2023-12-24T21:34:13.496Z,1.90
2023-12-24T21:36:42.024Z,1.70
2023-12-24T21:39:08.638Z,1.90
2023-12-24T21:41:42.401Z,2.00
2023-12-24T21:44:08.979Z,3.10
2023-12-24T21:46:35.595Z,2.70
2023-12-24T21:49:02.853Z,2.27
2023-12-24T21:51:29.451Z,2.27
2023-12-24T21:53:56.042Z,2.00
2023-12-24T21:56:22.633Z,2.13
2023-12-24T21:58:49.240Z,2.27
2023-12-24T22:01:26.050Z,2.50
2023-12-24T22:03:56.258Z,2.97
2023-12-24T22:06:23.139Z,2.77
2023-12-24T22:08:49.937Z,4.40
2023-12-24T22:11:20.518Z,2.47
2023-12-24T22:13:48.200Z,1.70
2023-12-24T22:16:17.356Z,2.43
2023-12-24T22:18:45.270Z,2.03
2023-12-24T22:21:11.993Z,1.53
2023-12-24T22:23:38.626Z,1.90
2023-12-24T22:26:09.195Z,2.00
2023-12-24T22:28:36.433Z,1.87
2023-12-24T22:31:06.680Z,2.20
2023-12-24T22:33:34.336Z,2.30
2023-12-24T22:36:01.051Z,2.07
2023-12-24T22:38:27.665Z,2.57
2023-12-24T22:40:54.814Z,1.90
2023-12-24T22:43:21.383Z,2.60
2023-12-24T22:45:51.689Z,3.33
2023-12-24T22:48:19.578Z,2.03
2023-12-24T22:50:46.506Z,3.53
2023-12-24T22:53:13.956Z,2.33
2023-12-24T22:55:40.516Z,2.10
2023-12-24T22:58:07.201Z,2.03
2023-12-24T23:00:33.901Z,2.70
2023-12-24T23:03:00.797Z,2.17
2023-12-24T23:05:27.754Z,2.00
2023-12-24T23:07:54.711Z,1.70
2023-12-24T23:10:21.554Z,2.57
2023-12-24T23:12:48.195Z,2.37
2023-12-24T23:15:14.857Z,2.70
2023-12-24T23:17:41.486Z,1.77
2023-12-24T23:20:09.625Z,1.63
2023-12-24T23:22:36.180Z,2.30
2023-12-24T23:25:03.882Z,2.03
2023-12-24T23:27:30.888Z,2.00
2023-12-24T23:29:57.566Z,2.03
2023-12-24T23:32:24.475Z,2.23
2023-12-24T23:34:51.218Z,2.20
2023-12-24T23:37:18.622Z,2.10
2023-12-24T23:39:45.195Z,2.10
2023-12-24T23:42:11.760Z,1.83
2023-12-24T23:44:38.447Z,2.13
2023-12-24T23:47:06.811Z,2.03
2023-12-24T23:49:33.383Z,1.80
2023-12-24T23:52:00.035Z,1.63
2023-12-24T23:54:26.620Z,1.90
2023-12-24T23:56:53.263Z,2.27
2023-12-24T23:59:22.582Z,1.70
